Darstellungsparameter: Aktuell verwendete Einstellungen:
Skalierung der Graphiken ... ?
xyx+y,   Skalierungsfaktor:      Skalierung: Modus: x, Faktor: 1
Darstellungszeitraum ... ?
Vom - - bis: - -   Zeitraum: 29.01.2019 - 18.02.2019
Min/Max/Avg-Anzeige ... ?
Zeige MMA aktuell
Zeige MMA Monat
Zeige MMA alles
Zeige --A aktuell
Zeige --A Monat
Zeige --A alles
Keine MMA-Anzeige
MMA:
Keine MMA-Graphiken
MMA-Basis: 29.01.2019 - 18.02.2019
Quicknavigation für Darstellung... ?
Tage:      1T, 2T, 3T, 5T -1T -2T -3T -5T +1T +2T +3T +5T
Wochen: 1W, 2W, 3W -1W -2W -3W +1W +2W +3W
Monate: 1M, 3M, 6M -1M -3M -6M +1M +3M +6M
Jahre:    1J, 3J, 5J, 10J -1J -3J -5J -10J +1J +3J +5J +10J
Nutze für die Darstellung ... ?
Originaldaten oder ...
Mittelwerte Minima Maxima auf...
Stundenbasis Tagesbasis Wochenbasis
Monatsbasis Jahresbasis      Datenbasis: Mittelwerte auf Stundenbasis
Darstellen als:
Statistik (Auto) Statistik J:M      Darstellung:
Zur Graphik,    zurück zur Übersicht aller Sensoren.
 
Tabellarische Datenbersicht: ?
 
Sensor: Nr:Datum:Temp:Feuchte:Taupunkt:
Aussen-T/F 1 29-01-2019 00:00:00 2.75 C 88.8333 % 1.1 C
2 29-01-2019 01:00:00 2.38333 C 90.7500 % 1.03 C
3 29-01-2019 02:00:00 1.91667 C 92.7500 % 0.87 C
4 29-01-2019 03:00:00 1.59167 C 93.8333 % 0.71 C
5 29-01-2019 04:00:00 1.04167 C 94.0000 % 0.19 C
6 29-01-2019 05:00:00 0.69167 C 94.2500 % -0.12 C
7 29-01-2019 06:00:00 0.95 C 94.8333 % 0.22 C
8 29-01-2019 07:00:00 1.15 C 94.0833 % 0.31 C
9 29-01-2019 08:00:00 1.18333 C 94.0000 % 0.33 C
10 29-01-2019 09:00:00 1.00833 C 94.0000 % 0.15 C
11 29-01-2019 10:00:00 2.06667 C 91.0000 % 0.76 C
12 29-01-2019 11:00:00 2.91667 C 87.8333 % 1.1 C
13 29-01-2019 12:00:00 3.63333 C 85.3333 % 1.41 C
14 29-01-2019 13:00:00 3.96667 C 83.9167 % 1.5 C
15 29-01-2019 14:00:00 3.85 C 82.7500 % 1.19 C
16 29-01-2019 15:00:00 3.8 C 81.5000 % 0.93 C
17 29-01-2019 16:00:00 3.76667 C 81.5833 % 0.91 C
18 29-01-2019 17:00:00 2.78333 C 84.5833 % 0.45 C
19 29-01-2019 18:00:00 1.3 C 87.2500 % -0.58 C
20 29-01-2019 19:00:00 0.25833 C 89.9167 % -1.2 C
21 29-01-2019 20:00:00 -0.25833 C 90.9167 % -1.56 C
22 29-01-2019 21:00:00 -0.3 C 91.0000 % -1.59 C
23 29-01-2019 22:00:00 -0.375 C 91.2500 % -1.62 C
24 29-01-2019 23:00:00 -0.55 C 92.3333 % -1.64 C
25 30-01-2019 00:00:00 -0.55 C 93.0000 % -1.54 C
Sensor: Nr:Datum:Temp:Feuchte:Taupunkt:
Aussen-T/F 26 30-01-2019 01:00:00 -0.675 C 93.0000 % -1.66 C
27 30-01-2019 02:00:00 -0.68333 C 93.0000 % -1.67 C
28 30-01-2019 03:00:00 -0.8 C 92.4167 % -1.87 C
29 30-01-2019 04:00:00 -0.875 C 92.6667 % -1.91 C
30 30-01-2019 05:00:00 -0.51667 C 92.0000 % -1.65 C
31 30-01-2019 06:00:00 -0.10833 C 90.5833 % -1.46 C
32 30-01-2019 07:00:00 0.30833 C 88.5000 % -1.36 C
33 30-01-2019 08:00:00 0.16667 C 91.6667 % -1.02 C
34 30-01-2019 09:00:00 0.025 C 93.8333 % -0.85 C
35 30-01-2019 10:00:00 0.3 C 94.0000 % -0.55 C
36 30-01-2019 11:00:00 0.825 C 94.0000 % -0.03 C
37 30-01-2019 12:00:00 1.40833 C 94.0833 % 0.56 C
38 30-01-2019 13:00:00 1.66667 C 94.0000 % 0.81 C
39 30-01-2019 14:00:00 1.70833 C 93.7500 % 0.81 C
40 30-01-2019 15:00:00 1.475 C 94.0000 % 0.62 C
41 30-01-2019 16:00:00 1.15833 C 94.7500 % 0.41 C
42 30-01-2019 17:00:00 1.1 C 95.0000 % 0.39 C
43 30-01-2019 18:00:00 1.075 C 95.0000 % 0.37 C
44 30-01-2019 19:00:00 1.08333 C 95.7500 % 0.48 C
45 30-01-2019 20:00:00 1.03333 C 95.6667 % 0.42 C
46 30-01-2019 21:00:00 0.95833 C 94.0000 % 0.1 C
47 30-01-2019 22:00:00 0.71667 C 92.8333 % -0.31 C
48 30-01-2019 23:00:00 0.23333 C 92.3333 % -0.86 C
49 31-01-2019 00:00:00 -0.4 C 93.0000 % -1.39 C
50 31-01-2019 01:00:00 -1.24167 C 93.8333 % -2.11 C
Sensor: Nr:Datum:Temp:Feuchte:Taupunkt:
Aussen-T/F 51 31-01-2019 02:00:00 -1.29167 C 94.5000 % -2.06 C
52 31-01-2019 03:00:00 -1.30833 C 95.0000 % -2 C
53 31-01-2019 04:00:00 -0.8 C 95.5833 % -1.42 C
54 31-01-2019 05:00:00 -0.61667 C 96.0000 % -1.17 C
55 31-01-2019 06:00:00 -0.41667 C 96.0000 % -0.97 C
56 31-01-2019 07:00:00 -0.35833 C 96.0000 % -0.92 C
57 31-01-2019 08:00:00 -0.29167 C 96.0000 % -0.85 C
58 31-01-2019 09:00:00 0.15833 C 96.0000 % -0.4 C
59 31-01-2019 10:00:00 0.725 C 95.2500 % 0.05 C
60 31-01-2019 11:00:00 1.39167 C 94.1667 % 0.56 C
61 31-01-2019 12:00:00 1.81667 C 93.9167 % 0.94 C
62 31-01-2019 13:00:00 1.53333 C 93.8333 % 0.65 C
63 31-01-2019 14:00:00 1.83333 C 94.5833 % 1.06 C
64 31-01-2019 15:00:00 2.25 C 93.4167 % 1.3 C
65 31-01-2019 16:00:00 1.56667 C 93.2500 % 0.6 C
66 31-01-2019 17:00:00 0.93333 C 94.0000 % 0.08 C
67 31-01-2019 18:00:00 0.06667 C 94.0000 % -0.78 C
68 31-01-2019 19:00:00 -1.11667 C 93.8333 % -1.98 C
69 31-01-2019 20:00:00 -1.95833 C 94.1667 % -2.77 C
70 31-01-2019 21:00:00 -2.00833 C 95.0000 % -2.7 C
71 31-01-2019 22:00:00 -1.6 C 95.9167 % -2.16 C
72 31-01-2019 23:00:00 -1.225 C 96.0000 % -1.78 C
73 01-02-2019 00:00:00 -0.775 C 96.0000 % -1.33 C
74 01-02-2019 01:00:00 -0.44167 C 96.0000 % -1 C
75 01-02-2019 02:00:00 -0.125 C 96.0000 % -0.68 C
Sensor: Nr:Datum:Temp:Feuchte:Taupunkt:
Aussen-T/F 76 01-02-2019 03:00:00 0.575 C 96.7500 % 0.12 C
77 01-02-2019 04:00:00 1.08333 C 96.2500 % 0.55 C
78 01-02-2019 05:00:00 1.18333 C 95.9167 % 0.61 C
79 01-02-2019 06:00:00 1.13333 C 95.8333 % 0.54 C
80 01-02-2019 07:00:00 1.2 C 96.0000 % 0.63 C
81 01-02-2019 08:00:00 1.31667 C 96.0833 % 0.76 C
82 01-02-2019 09:00:00 1.54167 C 96.0000 % 0.97 C
83 01-02-2019 10:00:00 2.21667 C 96.0000 % 1.65 C
84 01-02-2019 11:00:00 3.15833 C 95.0000 % 2.44 C
85 01-02-2019 12:00:00 3.225 C 93.3333 % 2.25 C
86 01-02-2019 13:00:00 2.73333 C 94.3333 % 1.92 C
87 01-02-2019 14:00:00 3.49167 C 94.8333 % 2.74 C
88 01-02-2019 15:00:00 3.23333 C 93.9167 % 2.35 C
89 01-02-2019 16:00:00 2.86667 C 94.9167 % 2.13 C
90 01-02-2019 17:00:00 2.54167 C 95.4167 % 1.88 C
91 01-02-2019 18:00:00 2.46667 C 96.0000 % 1.9 C
92 01-02-2019 19:00:00 2.24167 C 96.0000 % 1.67 C
93 01-02-2019 20:00:00 2.01667 C 96.0000 % 1.45 C
94 01-02-2019 21:00:00 1.80833 C 96.0000 % 1.24 C
95 01-02-2019 22:00:00 1.675 C 96.0000 % 1.11 C
96 01-02-2019 23:00:00 1.59167 C 96.7500 % 1.13 C
97 02-02-2019 00:00:00 1.74167 C 97.0000 % 1.32 C
98 02-02-2019 01:00:00 1.825 C 97.0000 % 1.4 C
99 02-02-2019 02:00:00 1.825 C 97.0000 % 1.4 C
100 02-02-2019 03:00:00 1.75833 C 97.0000 % 1.33 C
Sensor: Nr:Datum:Temp:Feuchte:Taupunkt:
Aussen-T/F 101 02-02-2019 04:00:00 1.81667 C 97.0000 % 1.39 C
102 02-02-2019 05:00:00 1.70833 C 97.0000 % 1.28 C
103 02-02-2019 06:00:00 1.725 C 97.0000 % 1.3 C
104 02-02-2019 07:00:00 1.73333 C 97.0000 % 1.31 C
105 02-02-2019 08:00:00 1.8 C 97.0000 % 1.38 C
106 02-02-2019 09:00:00 2.09167 C 97.0000 % 1.67 C
107 02-02-2019 10:00:00 2.71667 C 97.5000 % 2.36 C
108 02-02-2019 11:00:00 3.05 C 97.0000 % 2.62 C
109 02-02-2019 12:00:00 3.31667 C 97.0000 % 2.89 C
110 02-02-2019 13:00:00 3.675 C 97.0000 % 3.24 C
111 02-02-2019 14:00:00 3.725 C 97.0000 % 3.29 C
112 02-02-2019 15:00:00 3.90833 C 97.0000 % 3.48 C
113 02-02-2019 16:00:00 3.675 C 97.0000 % 3.24 C
114 02-02-2019 17:00:00 3.25 C 97.0000 % 2.82 C
115 02-02-2019 18:00:00 3.15833 C 97.0000 % 2.73 C
116 02-02-2019 19:00:00 2.625 C 96.6667 % 2.15 C
117 02-02-2019 20:00:00 2.30833 C 96.1667 % 1.76 C
118 02-02-2019 21:00:00 2.1 C 96.0000 % 1.53 C
119 02-02-2019 22:00:00 1.875 C 96.0000 % 1.31 C
120 02-02-2019 23:00:00 1.8 C 96.3333 % 1.28 C
121 03-02-2019 00:00:00 1.875 C 96.5000 % 1.38 C
122 03-02-2019 01:00:00 2.06667 C 96.0000 % 1.5 C
123 03-02-2019 02:00:00 2.15833 C 94.3333 % 1.34 C
124 03-02-2019 03:00:00 2.18333 C 93.0000 % 1.17 C
125 03-02-2019 04:00:00 2.1 C 93.5000 % 1.16 C
Sensor: Nr:Datum:Temp:Feuchte:Taupunkt:
Aussen-T/F 126 03-02-2019 05:00:00 2.18333 C 93.0833 % 1.18 C
127 03-02-2019 06:00:00 2.19167 C 92.5000 % 1.11 C
128 03-02-2019 07:00:00 1.9 C 93.0000 % 0.89 C
129 03-02-2019 08:00:00 1.875 C 93.0000 % 0.87 C
130 03-02-2019 09:00:00 2.00833 C 93.1667 % 1.02 C
131 03-02-2019 10:00:00 2.46667 C 91.3333 % 1.2 C
132 03-02-2019 11:00:00 3.10833 C 88.7500 % 1.44 C
133 03-02-2019 12:00:00 3.58333 C 85.6667 % 1.41 C
134 03-02-2019 13:00:00 3.96667 C 83.3333 % 1.4 C
135 03-02-2019 14:00:00 4.1 C 83.0833 % 1.49 C
136 03-02-2019 15:00:00 4.50833 C 76.8333 % 0.81 C
137 03-02-2019 16:00:00 4.43333 C 76.0833 % 0.6 C
138 03-02-2019 17:00:00 4.26667 C 78.0000 % 0.78 C
139 03-02-2019 18:00:00 3.875 C 82.2500 % 1.13 C
140 03-02-2019 19:00:00 3.58333 C 84.8333 % 1.28 C
141 03-02-2019 20:00:00 3.19167 C 87.1667 % 1.27 C
142 03-02-2019 21:00:00 1.925 C 89.0833 % 0.32 C
143 03-02-2019 22:00:00 0.99167 C 91.2500 % -0.27 C
144 03-02-2019 23:00:00 0.25833 C 92.8333 % -0.76 C
145 04-02-2019 00:00:00 -0.31667 C 93.6667 % -1.21 C
146 04-02-2019 01:00:00 -0.05833 C 94.9167 % -0.77 C
147 04-02-2019 02:00:00 0 C 94.3333 % -0.8 C
148 04-02-2019 03:00:00 -0.2 C 94.0000 % -1.05 C
149 04-02-2019 04:00:00 -0.475 C 94.0833 % -1.31 C
150 04-02-2019 05:00:00 -0.03333 C 94.9167 % -0.75 C
Sensor: Nr:Datum:Temp:Feuchte:Taupunkt:
Aussen-T/F 151 04-02-2019 06:00:00 0.36667 C 95.0000 % -0.34 C
152 04-02-2019 07:00:00 0.51667 C 94.9167 % -0.2 C
153 04-02-2019 08:00:00 0.7 C 94.4167 % -0.09 C
154 04-02-2019 09:00:00 0.60833 C 93.9167 % -0.26 C
155 04-02-2019 10:00:00 0.9 C 94.0833 % 0.06 C
156 04-02-2019 11:00:00 2.04167 C 91.2500 % 0.77 C
157 04-02-2019 12:00:00 3.75 C 81.8333 % 0.94 C
158 04-02-2019 13:00:00 4.78333 C 72.5833 % 0.29 C
159 04-02-2019 14:00:00 5.30833 C 68.5000 % -0.01 C
160 04-02-2019 15:00:00 5.325 C 66.7500 % -0.35 C
161 04-02-2019 16:00:00 5 C 71.8333 % 0.35 C
162 04-02-2019 17:00:00 2.75 C 83.4167 % 0.23 C
163 04-02-2019 18:00:00 1.4 C 87.5000 % -0.44 C
164 04-02-2019 19:00:00 1.40833 C 89.5833 % -0.11 C
165 04-02-2019 20:00:00 2.00833 C 87.5833 % 0.17 C
166 04-02-2019 21:00:00 2.625 C 82.5833 % -0.03 C
167 04-02-2019 22:00:00 2.85 C 82.9167 % 0.24 C
168 04-02-2019 23:00:00 2.71667 C 84.9167 % 0.44 C
169 05-02-2019 00:00:00 2.99167 C 82.6667 % 0.34 C
170 05-02-2019 01:00:00 3.31667 C 80.8333 % 0.35 C
171 05-02-2019 02:00:00 3.41667 C 79.2500 % 0.17 C
172 05-02-2019 03:00:00 3.6 C 77.8333 % 0.1 C
173 05-02-2019 04:00:00 3.44167 C 78.9167 % 0.14 C
174 05-02-2019 05:00:00 3.65 C 76.5833 % -0.07 C
175 05-02-2019 06:00:00 3.39167 C 81.5000 % 0.53 C
Sensor: Nr:Datum:Temp:Feuchte:Taupunkt:
Aussen-T/F 176 05-02-2019 07:00:00 2.98333 C 84.8333 % 0.69 C
177 05-02-2019 08:00:00 2.98333 C 85.0000 % 0.72 C
178 05-02-2019 09:00:00 3.58333 C 80.4167 % 0.54 C
179 05-02-2019 10:00:00 4.175 C 78.0833 % 0.71 C
180 05-02-2019 11:00:00 5.00833 C 75.7500 % 1.09 C
181 05-02-2019 12:00:00 5.85833 C 74.6667 % 1.72 C
182 05-02-2019 13:00:00 6.30833 C 73.4167 % 1.91 C
183 05-02-2019 14:00:00 6.73333 C 72.8333 % 2.21 C
184 05-02-2019 15:00:00 7.03333 C 73.5833 % 2.64 C
185 05-02-2019 16:00:00 6.83333 C 76.5000 % 3 C
186 05-02-2019 17:00:00 6.15833 C 82.9167 % 3.48 C
187 05-02-2019 18:00:00 5.15833 C 86.2500 % 3.05 C
188 05-02-2019 19:00:00 4.75 C 87.5000 % 2.86 C
189 05-02-2019 20:00:00 4.35 C 88.2500 % 2.58 C
190 05-02-2019 21:00:00 4.10833 C 89.3333 % 2.51 C
191 05-02-2019 22:00:00 2.69167 C 89.6667 % 1.17 C
192 05-02-2019 23:00:00 1.725 C 91.6667 % 0.52 C
193 06-02-2019 00:00:00 0.43333 C 92.5833 % -0.62 C
194 06-02-2019 01:00:00 -0.225 C 94.0000 % -1.07 C
195 06-02-2019 02:00:00 -0.675 C 94.4167 % -1.46 C
196 06-02-2019 03:00:00 -1.16667 C 94.8333 % -1.89 C
197 06-02-2019 04:00:00 -1.425 C 95.0000 % -2.12 C
198 06-02-2019 05:00:00 -1.59167 C 95.0000 % -2.29 C
199 06-02-2019 06:00:00 -1.76667 C 95.0000 % -2.46 C
200 06-02-2019 07:00:00 -1.975 C 95.0000 % -2.67 C
Sensor: Nr:Datum:Temp:Feuchte:Taupunkt:
Aussen-T/F 201 06-02-2019 08:00:00 -2.21667 C 95.5833 % -2.83 C
202 06-02-2019 09:00:00 -1.36667 C 96.0000 % -1.92 C
203 06-02-2019 10:00:00 0.10833 C 96.1667 % -0.43 C
204 06-02-2019 11:00:00 1.675 C 94.4167 % 0.88 C
205 06-02-2019 12:00:00 2.98333 C 91.0833 % 1.67 C
206 06-02-2019 13:00:00 4.15 C 87.2500 % 2.23 C
207 06-02-2019 14:00:00 5.675 C 71.0833 % 0.86 C
208 06-02-2019 15:00:00 5.975 C 72.2500 % 1.37 C
209 06-02-2019 16:00:00 5.13333 C 78.0833 % 1.64 C
210 06-02-2019 17:00:00 3.79167 C 81.9167 % 1 C
211 06-02-2019 18:00:00 2.64167 C 86.0000 % 0.54 C
212 06-02-2019 19:00:00 2.14167 C 89.2500 % 0.56 C
213 06-02-2019 20:00:00 1.91667 C 89.5833 % 0.39 C
214 06-02-2019 21:00:00 1.53333 C 91.0833 % 0.24 C
215 06-02-2019 22:00:00 1.21667 C 91.7500 % 0.03 C
216 06-02-2019 23:00:00 1.26667 C 91.9167 % 0.1 C
217 07-02-2019 00:00:00 0.90833 C 91.6667 % -0.29 C
218 07-02-2019 01:00:00 1.20833 C 92.0000 % 0.06 C
219 07-02-2019 02:00:00 1.44167 C 91.4167 % 0.2 C
220 07-02-2019 03:00:00 1.73333 C 91.6667 % 0.53 C
221 07-02-2019 04:00:00 2.33333 C 90.4167 % 0.93 C
222 07-02-2019 05:00:00 2.65833 C 91.0000 % 1.34 C
223 07-02-2019 06:00:00 3.00833 C 88.5000 % 1.3 C
224 07-02-2019 07:00:00 3.5 C 89.4167 % 1.93 C
225 07-02-2019 08:00:00 3.99167 C 92.4167 % 2.88 C
Sensor: Nr:Datum:Temp:Feuchte:Taupunkt:
Aussen-T/F 226 07-02-2019 09:00:00 4.53333 C 94.6667 % 3.75 C
227 07-02-2019 10:00:00 5.175 C 95.0833 % 4.45 C
228 07-02-2019 11:00:00 5.675 C 95.6667 % 5.04 C
229 07-02-2019 12:00:00 6.775 C 95.0833 % 6.04 C
230 07-02-2019 13:00:00 7.54167 C 90.9167 % 6.16 C
231 07-02-2019 14:00:00 8.09167 C 85.1667 % 5.75 C
232 07-02-2019 15:00:00 8.53333 C 80.8333 % 5.43 C
233 07-02-2019 16:00:00 8.59167 C 79.2500 % 5.21 C
234 07-02-2019 17:00:00 7.51667 C 82.0833 % 4.66 C
235 07-02-2019 18:00:00 6.6 C 83.8333 % 4.07 C
236 07-02-2019 19:00:00 6.65 C 81.0833 % 3.64 C
237 07-02-2019 20:00:00 6.28333 C 83.0833 % 3.63 C
238 07-02-2019 21:00:00 6.9 C 82.1667 % 4.07 C
239 07-02-2019 22:00:00 6.44167 C 82.1667 % 3.63 C
240 07-02-2019 23:00:00 6.2 C 84.4167 % 3.77 C
241 08-02-2019 00:00:00 5.525 C 87.3333 % 3.59 C
242 08-02-2019 01:00:00 5.89167 C 86.4167 % 3.8 C
243 08-02-2019 02:00:00 5.8 C 86.8333 % 3.78 C
244 08-02-2019 03:00:00 5.75 C 87.5833 % 3.85 C
245 08-02-2019 04:00:00 6.28333 C 86.3333 % 4.17 C
246 08-02-2019 05:00:00 6.4 C 86.0833 % 4.25 C
247 08-02-2019 06:00:00 6.325 C 86.6667 % 4.27 C
248 08-02-2019 07:00:00 6.38333 C 86.7500 % 4.34 C
249 08-02-2019 08:00:00 6.675 C 86.0000 % 4.5 C
250 08-02-2019 09:00:00 7.05 C 85.5833 % 4.8 C
Sensor: Nr:Datum:Temp:Feuchte:Taupunkt:
Aussen-T/F 251 08-02-2019 10:00:00 7.425 C 85.0833 % 5.09 C
252 08-02-2019 11:00:00 8.45 C 82.4167 % 5.63 C
253 08-02-2019 12:00:00 9.44167 C 79.5000 % 6.08 C
254 08-02-2019 13:00:00 9.21667 C 79.5833 % 5.88 C
255 08-02-2019 14:00:00 8.40833 C 81.7500 % 5.48 C
256 08-02-2019 15:00:00 8.25 C 82.6667 % 5.48 C
257 08-02-2019 16:00:00 8.28333 C 82.7500 % 5.53 C
258 08-02-2019 17:00:00 8.21667 C 82.0000 % 5.33 C
259 08-02-2019 18:00:00 8.06667 C 82.3333 % 5.24 C
260 08-02-2019 19:00:00 8.21667 C 81.0000 % 5.16 C
261 08-02-2019 20:00:00 8.23333 C 80.3333 % 5.05 C
262 08-02-2019 21:00:00 8.075 C 80.0833 % 4.85 C
263 08-02-2019 22:00:00 7.75833 C 80.6667 % 4.65 C
264 08-02-2019 23:00:00 8.1 C 79.2500 % 4.73 C
265 09-02-2019 00:00:00 8.29167 C 77.9167 % 4.67 C
266 09-02-2019 01:00:00 7.79167 C 81.4167 % 4.81 C
267 09-02-2019 02:00:00 7.475 C 85.5000 % 5.21 C
268 09-02-2019 03:00:00 8.075 C 84.2500 % 5.58 C
269 09-02-2019 04:00:00 8.90833 C 82.0833 % 6.02 C
270 09-02-2019 05:00:00 8.25833 C 83.6667 % 5.66 C
271 09-02-2019 06:00:00 7.8 C 82.8333 % 5.07 C
272 09-02-2019 07:00:00 7.49167 C 85.5833 % 5.24 C
273 09-02-2019 08:00:00 7.225 C 86.4167 % 5.11 C
274 09-02-2019 09:00:00 7.73333 C 82.3333 % 4.92 C
275 09-02-2019 10:00:00 8.85 C 79.3333 % 5.47 C
Sensor: Nr:Datum:Temp:Feuchte:Taupunkt:
Aussen-T/F 276 09-02-2019 11:00:00 9.30833 C 77.6667 % 5.61 C
277 09-02-2019 12:00:00 9.975 C 73.9167 % 5.55 C
278 09-02-2019 13:00:00 10.73333 C 70.0833 % 5.51 C
279 09-02-2019 14:00:00 11.125 C 67.6667 % 5.38 C
280 09-02-2019 15:00:00 10.60833 C 68.4167 % 5.04 C
281 09-02-2019 16:00:00 10.06667 C 71.9167 % 5.24 C
282 09-02-2019 17:00:00 9.375 C 74.0000 % 4.98 C
283 09-02-2019 18:00:00 8.54167 C 78.1667 % 4.96 C
284 09-02-2019 19:00:00 7.86667 C 84.7500 % 5.46 C
285 09-02-2019 20:00:00 7.25 C 85.7500 % 5.03 C
286 09-02-2019 21:00:00 7.60833 C 85.9167 % 5.41 C
287 09-02-2019 22:00:00 8.15833 C 83.7500 % 5.58 C
288 09-02-2019 23:00:00 8.625 C 82.0000 % 5.73 C
289 10-02-2019 00:00:00 8.61667 C 82.0000 % 5.72 C
290 10-02-2019 01:00:00 7.85 C 83.9167 % 5.31 C
291 10-02-2019 02:00:00 7.41667 C 84.6667 % 5.01 C
292 10-02-2019 03:00:00 7.60833 C 84.1667 % 5.11 C
293 10-02-2019 04:00:00 6.98333 C 90.4167 % 5.53 C
294 10-02-2019 05:00:00 6.95833 C 93.6667 % 6.01 C
295 10-02-2019 06:00:00 7.625 C 94.0000 % 6.72 C
296 10-02-2019 07:00:00 8.38333 C 93.3333 % 7.37 C
297 10-02-2019 08:00:00 8.79167 C 91.7500 % 7.53 C
298 10-02-2019 09:00:00 9.49167 C 89.0833 % 7.79 C
299 10-02-2019 10:00:00 10.05833 C 88.6667 % 8.28 C
300 10-02-2019 11:00:00 9.725 C 90.7500 % 8.29 C
Sensor: Nr:Datum:Temp:Feuchte:Taupunkt:
Aussen-T/F 301 10-02-2019 12:00:00 9.65833 C 91.6667 % 8.37 C
302 10-02-2019 13:00:00 9.775 C 91.7500 % 8.5 C
303 10-02-2019 14:00:00 9.45833 C 90.5000 % 7.98 C
304 10-02-2019 15:00:00 8.78333 C 86.5833 % 6.67 C
305 10-02-2019 16:00:00 8.48333 C 86.8333 % 6.42 C
306 10-02-2019 17:00:00 7.95 C 86.3333 % 5.81 C
307 10-02-2019 18:00:00 6.475 C 90.0833 % 4.97 C
308 10-02-2019 19:00:00 6.41667 C 88.2500 % 4.62 C
309 10-02-2019 20:00:00 6.68333 C 87.6667 % 4.79 C
310 10-02-2019 21:00:00 6.14167 C 88.5833 % 4.4 C
311 10-02-2019 22:00:00 6.14167 C 83.8333 % 3.62 C
312 10-02-2019 23:00:00 5.58333 C 85.4167 % 3.34 C
313 11-02-2019 00:00:00 4.96667 C 89.0000 % 3.31 C
314 11-02-2019 01:00:00 4.3 C 92.4167 % 3.18 C
315 11-02-2019 02:00:00 3.93333 C 93.2500 % 2.94 C
316 11-02-2019 03:00:00 3.8 C 93.3333 % 2.83 C
317 11-02-2019 04:00:00 3.60833 C 93.7500 % 2.7 C
318 11-02-2019 05:00:00 3.85 C 94.0000 % 2.98 C
319 11-02-2019 06:00:00 3.825 C 94.0000 % 2.95 C
320 11-02-2019 07:00:00 4.06667 C 92.7500 % 3 C
321 11-02-2019 08:00:00 4.09167 C 91.0000 % 2.76 C
322 11-02-2019 09:00:00 4.20833 C 89.9167 % 2.7 C
323 11-02-2019 10:00:00 4.98333 C 86.3333 % 2.9 C
324 11-02-2019 11:00:00 5.94167 C 82.0833 % 3.12 C
325 11-02-2019 12:00:00 6.61667 C 78.4167 % 3.14 C
Sensor: Nr:Datum:Temp:Feuchte:Taupunkt:
Aussen-T/F 326 11-02-2019 13:00:00 7.29167 C 74.4167 % 3.05 C
327 11-02-2019 14:00:00 7.35833 C 72.9167 % 2.83 C
328 11-02-2019 15:00:00 7.35833 C 73.7500 % 2.99 C
329 11-02-2019 16:00:00 6.90833 C 79.0000 % 3.53 C
330 11-02-2019 17:00:00 6.2 C 83.7500 % 3.66 C
331 11-02-2019 18:00:00 5.73333 C 79.3333 % 2.44 C
332 11-02-2019 19:00:00 4.83333 C 84.6667 % 2.48 C
333 11-02-2019 20:00:00 4.15833 C 87.5000 % 2.27 C
334 11-02-2019 21:00:00 3.45 C 88.6667 % 1.76 C
335 11-02-2019 22:00:00 2.76667 C 90.0000 % 1.29 C
336 11-02-2019 23:00:00 2.56667 C 91.5833 % 1.34 C
337 12-02-2019 00:00:00 3.125 C 89.9167 % 1.64 C
338 12-02-2019 01:00:00 3.05833 C 89.8333 % 1.56 C
339 12-02-2019 02:00:00 2.8 C 90.8333 % 1.46 C
340 12-02-2019 03:00:00 2.63333 C 90.7500 % 1.28 C
341 12-02-2019 04:00:00 2.48333 C 91.3333 % 1.22 C
342 12-02-2019 05:00:00 2.63333 C 90.5000 % 1.24 C
343 12-02-2019 06:00:00 2.4 C 90.0833 % 0.94 C
344 12-02-2019 07:00:00 2.41667 C 90.0000 % 0.95 C
345 12-02-2019 08:00:00 2.275 C 90.0000 % 0.81 C
346 12-02-2019 09:00:00 2.98333 C 88.7500 % 1.31 C
347 12-02-2019 10:00:00 3.95833 C 86.3333 % 1.89 C
348 12-02-2019 11:00:00 4.65833 C 84.0833 % 2.21 C
349 12-02-2019 12:00:00 5.44167 C 82.2500 % 2.66 C
350 12-02-2019 13:00:00 6.30833 C 79.4167 % 3.02 C
Sensor: Nr:Datum:Temp:Feuchte:Taupunkt:
Aussen-T/F 351 12-02-2019 14:00:00 6.875 C 76.7500 % 3.08 C
352 12-02-2019 15:00:00 7.05 C 75.7500 % 3.07 C
353 12-02-2019 16:00:00 7.425 C 74.8333 % 3.26 C
354 12-02-2019 17:00:00 6.55833 C 77.3333 % 2.88 C
355 12-02-2019 18:00:00 4.35833 C 84.6667 % 2.01 C
356 12-02-2019 19:00:00 3.025 C 88.4167 % 1.3 C
357 12-02-2019 20:00:00 2.33333 C 90.3333 % 0.92 C
358 12-02-2019 21:00:00 1.59167 C 91.5000 % 0.36 C
359 12-02-2019 22:00:00 1.41667 C 92.8333 % 0.39 C
360 12-02-2019 23:00:00 1.375 C 93.2500 % 0.41 C
361 13-02-2019 00:00:00 1.25 C 93.0000 % 0.25 C
362 13-02-2019 01:00:00 0.85833 C 93.2500 % -0.11 C
363 13-02-2019 02:00:00 0.125 C 93.4167 % -0.81 C
364 13-02-2019 03:00:00 -0.31667 C 94.0000 % -1.16 C
365 13-02-2019 04:00:00 -0.33333 C 94.5833 % -1.09 C
366 13-02-2019 05:00:00 -0.46667 C 95.0000 % -1.17 C
367 13-02-2019 06:00:00 -0.45 C 95.1667 % -1.13 C
368 13-02-2019 07:00:00 0.26667 C 96.0000 % -0.29 C
369 13-02-2019 08:00:00 0.66667 C 95.6667 % 0.06 C
370 13-02-2019 09:00:00 1.00833 C 95.0833 % 0.31 C
371 13-02-2019 10:00:00 1.60833 C 93.6667 % 0.7 C
372 13-02-2019 11:00:00 2.325 C 91.3333 % 1.06 C
373 13-02-2019 12:00:00 3.58333 C 89.2500 % 1.98 C
374 13-02-2019 13:00:00 4.89167 C 84.6667 % 2.53 C
375 13-02-2019 14:00:00 5.41667 C 83.0833 % 2.78 C
Sensor: Nr:Datum:Temp:Feuchte:Taupunkt:
Aussen-T/F 376 13-02-2019 15:00:00 5.6 C 83.1667 % 2.97 C
377 13-02-2019 16:00:00 5.54167 C 85.7500 % 3.35 C
378 13-02-2019 17:00:00 4.69167 C 88.5000 % 2.96 C
379 13-02-2019 18:00:00 3.20833 C 90.5000 % 1.81 C
380 13-02-2019 19:00:00 1.85 C 91.6667 % 0.64 C
381 13-02-2019 20:00:00 1.15 C 92.9167 % 0.14 C
382 13-02-2019 21:00:00 0.55833 C 92.3333 % -0.54 C
383 13-02-2019 22:00:00 0.125 C 93.0000 % -0.87 C
384 13-02-2019 23:00:00 -0.45 C 93.0000 % -1.44 C
385 14-02-2019 00:00:00 -0.71667 C 93.2500 % -1.67 C
386 14-02-2019 01:00:00 -1.05833 C 93.9167 % -1.91 C
387 14-02-2019 02:00:00 -1.1 C 94.2500 % -1.9 C
388 14-02-2019 03:00:00 -1.53333 C 94.0833 % -2.36 C
389 14-02-2019 04:00:00 -1.775 C 94.8333 % -2.49 C
390 14-02-2019 05:00:00 -1.96667 C 95.0000 % -2.66 C
391 14-02-2019 06:00:00 -2.45 C 95.0000 % -3.14 C
392 14-02-2019 07:00:00 -2.65 C 95.1667 % -3.31 C
393 14-02-2019 08:00:00 -2.43333 C 95.5833 % -3.04 C
394 14-02-2019 09:00:00 -2.08333 C 96.0000 % -2.63 C
395 14-02-2019 10:00:00 -1.69167 C 96.0000 % -2.24 C
396 14-02-2019 11:00:00 -0.9 C 96.4167 % -1.4 C
397 14-02-2019 12:00:00 0.675 C 97.0000 % 0.25 C
398 14-02-2019 13:00:00 2.75833 C 96.9167 % 2.32 C
399 14-02-2019 14:00:00 4.65833 C 94.5000 % 3.85 C
400 14-02-2019 15:00:00 6.48333 C 90.3333 % 5.02 C
Sensor: Nr:Datum:Temp:Feuchte:Taupunkt:
Aussen-T/F 401 14-02-2019 16:00:00 6.08333 C 88.0833 % 4.26 C
402 14-02-2019 17:00:00 5.625 C 87.8333 % 3.77 C
403 14-02-2019 18:00:00 4.58333 C 86.5833 % 2.54 C
404 14-02-2019 19:00:00 3.30833 C 85.2500 % 1.07 C
405 14-02-2019 20:00:00 2.78333 C 86.9167 % 0.83 C
406 14-02-2019 21:00:00 1.55 C 89.4167 % 0 C
407 14-02-2019 22:00:00 0.49167 C 91.1667 % -0.78 C
408 14-02-2019 23:00:00 -0.05833 C 92.9167 % -1.06 C
409 15-02-2019 00:00:00 -0.55 C 93.7500 % -1.43 C
410 15-02-2019 01:00:00 -0.93333 C 94.2500 % -1.74 C
411 15-02-2019 02:00:00 -1.15 C 94.8333 % -1.87 C
412 15-02-2019 03:00:00 -1.40833 C 95.0000 % -2.1 C
413 15-02-2019 04:00:00 -1.50833 C 95.0000 % -2.2 C
414 15-02-2019 05:00:00 -1.88333 C 95.0000 % -2.58 C
415 15-02-2019 06:00:00 -2.075 C 95.1667 % -2.74 C
416 15-02-2019 07:00:00 -2.4 C 95.0000 % -3.09 C
417 15-02-2019 08:00:00 -2.2 C 96.0000 % -2.75 C
418 15-02-2019 09:00:00 -1.69167 C 96.0000 % -2.24 C
419 15-02-2019 10:00:00 -0.7 C 96.1667 % -1.23 C
420 15-02-2019 11:00:00 1.26667 C 97.0000 % 0.84 C
421 15-02-2019 12:00:00 3.41667 C 96.6667 % 2.94 C
422 15-02-2019 13:00:00 5.93333 C 91.5833 % 4.67 C
423 15-02-2019 14:00:00 8.25833 C 82.6667 % 5.49 C
424 15-02-2019 15:00:00 9.58333 C 77.4167 % 5.83 C
425 15-02-2019 16:00:00 10.65833 C 68.9167 % 5.2 C
Sensor: Nr:Datum:Temp:Feuchte:Taupunkt:
Aussen-T/F 426 15-02-2019 17:00:00 9.35833 C 71.6667 % 4.51 C
427 15-02-2019 18:00:00 7.275 C 76.0000 % 3.33 C
428 15-02-2019 19:00:00 6.16667 C 79.7500 % 2.94 C
429 15-02-2019 20:00:00 4.46667 C 84.5000 % 2.09 C
430 15-02-2019 21:00:00 3.15833 C 88.2500 % 1.41 C
431 15-02-2019 22:00:00 1.85 C 90.3333 % 0.44 C
432 15-02-2019 23:00:00 1.23333 C 92.0833 % 0.09 C
433 16-02-2019 00:00:00 0.41667 C 92.8333 % -0.6 C
434 16-02-2019 01:00:00 -0.15 C 93.8333 % -1.02 C
435 16-02-2019 02:00:00 -0.48333 C 94.4167 % -1.27 C
436 16-02-2019 03:00:00 -0.75833 C 94.7500 % -1.49 C
437 16-02-2019 04:00:00 -0.925 C 95.0000 % -1.62 C
438 16-02-2019 05:00:00 -1.11667 C 95.3333 % -1.77 C
439 16-02-2019 06:00:00 -1.20833 C 95.4167 % -1.85 C
440 16-02-2019 07:00:00 -1.64167 C 95.0000 % -2.34 C
441 16-02-2019 08:00:00 -1.78333 C 95.5000 % -2.41 C
442 16-02-2019 09:00:00 -1.09167 C 96.0000 % -1.65 C
443 16-02-2019 10:00:00 -0.225 C 96.4167 % -0.72 C
444 16-02-2019 11:00:00 2.175 C 97.0000 % 1.75 C
445 16-02-2019 12:00:00 4.96667 C 96.9167 % 4.52 C
446 16-02-2019 13:00:00 7.85833 C 90.0000 % 6.32 C
447 16-02-2019 14:00:00 10.66667 C 77.0833 % 6.82 C
448 16-02-2019 15:00:00 11.75833 C 69.8333 % 6.44 C
449 16-02-2019 16:00:00 11.88333 C 67.2500 % 6.01 C
450 16-02-2019 17:00:00 10.69167 C 70.0000 % 5.45 C
Sensor: Nr:Datum:Temp:Feuchte:Taupunkt:
Aussen-T/F 451 16-02-2019 18:00:00 8.74167 C 76.4167 % 4.83 C
452 16-02-2019 19:00:00 7.29167 C 81.0833 % 4.27 C
453 16-02-2019 20:00:00 5.41667 C 84.2500 % 2.98 C
454 16-02-2019 21:00:00 3.75833 C 88.5833 % 2.05 C
455 16-02-2019 22:00:00 2.8 C 91.2500 % 1.52 C
456 16-02-2019 23:00:00 1.95833 C 93.0000 % 0.95 C
457 17-02-2019 00:00:00 1.55 C 94.0000 % 0.69 C
458 17-02-2019 01:00:00 0.86667 C 94.3333 % 0.06 C
459 17-02-2019 02:00:00 0.34167 C 95.0000 % -0.36 C
460 17-02-2019 03:00:00 0.09167 C 95.3333 % -0.56 C
461 17-02-2019 04:00:00 -0.36667 C 95.3333 % -1.02 C
462 17-02-2019 05:00:00 -0.85833 C 95.5833 % -1.47 C
463 17-02-2019 06:00:00 -0.975 C 96.0000 % -1.53 C
464 17-02-2019 07:00:00 -1.25 C 96.0000 % -1.8 C
465 17-02-2019 08:00:00 -1.33333 C 96.0000 % -1.89 C
466 17-02-2019 09:00:00 -0.81667 C 96.0000 % -1.37 C
467 17-02-2019 10:00:00 -0.16667 C 96.6667 % -0.63 C
468 17-02-2019 11:00:00 1.93333 C 97.0000 % 1.51 C
469 17-02-2019 12:00:00 4.73333 C 97.4167 % 4.36 C
470 17-02-2019 13:00:00 7.51667 C 96.5833 % 7.01 C
471 17-02-2019 14:00:00 9.76667 C 86.2500 % 7.58 C
472 17-02-2019 15:00:00 11.19167 C 77.2500 % 7.36 C
473 17-02-2019 16:00:00 11.94167 C 71.1667 % 6.89 C
474 17-02-2019 17:00:00 11 C 72.5000 % 6.25 C
475 17-02-2019 18:00:00 8.59167 C 76.3333 % 4.67 C
Sensor: Nr:Datum:Temp:Feuchte:Taupunkt:
Aussen-T/F 476 17-02-2019 19:00:00 6.73333 C 80.1667 % 3.56 C
477 17-02-2019 20:00:00 4.69167 C 84.5833 % 2.32 C
478 17-02-2019 21:00:00 3.65 C 87.4167 % 1.76 C
479 17-02-2019 22:00:00 2.375 C 89.5833 % 0.84 C
480 17-02-2019 23:00:00 1.7 C 91.6667 % 0.49 C
481 18-02-2019 00:00:00 1.46667 C 91.6667 % 0.26 C
482 18-02-2019 01:00:00 0.49167 C 92.5833 % -0.57 C
483 18-02-2019 02:00:00 0.08333 C 93.7500 % -0.8 C
484 18-02-2019 03:00:00 -0.41667 C 94.0833 % -1.25 C
485 18-02-2019 04:00:00 -0.775 C 94.5833 % -1.53 C
486 18-02-2019 05:00:00 -1.21667 C 95.0000 % -1.91 C
487 18-02-2019 06:00:00 -1.475 C 95.0000 % -2.17 C
488 18-02-2019 07:00:00 -1.65 C 95.0833 % -2.33 C
489 18-02-2019 08:00:00 -1.63333 C 95.4167 % -2.27 C
490 18-02-2019 09:00:00 -0.56667 C 96.0000 % -1.12 C
491 18-02-2019 10:00:00 0.19167 C 96.1667 % -0.35 C
492 18-02-2019 11:00:00 2.84167 C 96.6667 % 2.37 C
493 18-02-2019 12:00:00 6.04167 C 92.9167 % 4.98 C
494 18-02-2019 13:00:00 9.59167 C 80.4167 % 6.39 C
495 18-02-2019 14:00:00 11.34167 C 72.0000 % 6.48 C
496 18-02-2019 15:00:00 12.05833 C 66.9167 % 6.11 C
497 18-02-2019 16:00:00 11.84167 C 64.5833 % 5.39 C
498 18-02-2019 17:00:00 10.425 C 69.5833 % 5.11 C
499 18-02-2019 18:00:00 8.41667 C 74.7500 % 4.2 C
500 18-02-2019 19:00:00 7 C 80.0000 % 3.79 C
Sensor: Nr:Datum:Temp:Feuchte:Taupunkt:
Aussen-T/F 501 18-02-2019 20:00:00 5.65833 C 81.3333 % 2.72 C
502 18-02-2019 21:00:00 4.1 C 86.0000 % 1.97 C
503 18-02-2019 22:00:00 2.76667 C 88.7500 % 1.1 C
504 18-02-2019 23:00:00 2.13333 C 90.8333 % 0.8 C

Maximal/Minimal-Werte vom 29.01.2019 - 18.02.2019

Sensor Min Max Avg
Temp
(Aussen-T/F)
-2.7 °C
14-02-2019  07:00:00
13 °C
18-02-2019  15:55:00
3.31 °C
Feuchte
(Aussen-T/F)
60 %
18-02-2019  15:45:00
98 %
02-02-2019  10:00:00
89.01 %
Taupunkt
(Aussen-T/F)
-3.31 C
14-02-2019  07:00:00
8.5 C
10-02-2019  13:00:00
1.6 C

Die Daten stammen von einer Davis Vantage Pro 2 Wetter-Station und werden unter Linux mit der Software wview2wettercgi und aufbereitet. Alle Angaben erfolgen ohne Gewähr für ihre Vollständigkeit oder Richtigkeit.
Kontakt: Rainer Krienke krienke@uni-koblenz.de . Meine Webseiten an der Uni Koblenz oder privat.
Version: $Revision: 0.78 $